Etusivu
METAR-TAF:

METAR-TAF

Lentoasemat :

Greenville, Mississippi, Yhdysvallat

Leveyspiiri: 33-28-58N, Pituuspiiri: 090-59-08W, korkeus merenpinnasta: 40 m

Tämänhetkinen sää

Tämä raportti tehtiin 52 minuuttia sitten, kello 00.53 UTC
Tuuli 5 kn idästä
Lämpötila 16°C
Kosteus 63%
Ilmanpaine 1011 hPa
Näkyvyys: 16.1 km
selkeää

METAR: KGLH 190053Z AUTO 09005KT 10SM CLR 16/09 A2984 RMK AO2 SLP110 T01560089 $

Aika: 20:45 (01:45 UTC)

Sääennuste

Tämä raportti tehtiin 2 tuntia ja 15 minuuttia sitten, kello 23.30 UTC
Ennuste voimassa 19. päivästä klo 00 UTC - 19. päivään klo 24 UTC
Tuuli 7 kn idästä
Näkyvyys: 10 km
Hajanaisia pilviä 25000 ft:n korkeudessa
From 19. päivästä klo 1200 UTC
Tuuli 5 kn etelästä/kaakosta
Näkyvyys: 10 km
selkeää
From 19. päivästä klo 2100 UTC
Tuuli 5 kn lounaasta
Näkyvyys: 10 km
Muutamia pilviä 15000 ft:n korkeudessa

TAF: KGLH 182330Z 1900/1924 09007KT P6SM SCT250 FM191200 15005KT P6SM SKC FM192100 22005KT P6SM FEW150

Säähavainnot ja -ennusteet yli 4000 lentoasemalta (METAR- ja TAF-raportit).

Käytössä olevat sääasemat on merkitty karttaan keltaisilla ja punaisilla pisteillä.

Aseta hiiri pisteen päälle nähdäksesi sääaseman nimen.

Klikkaa sitten nähdäksesi säähavainnot ja -ennusteet.

Kartan vaihtaminen: klikkaa mustalla rastilla varustettuja vihreitä pisteitä, niin voit zoomata sisään; viivalla varustettua vihreää pistettä, niin voit zoomata ulos tai vihreitä nuolia, niin pääset viereisille kartoille.


METAR-TAF: